Terminal Aerodrome Forecast
Issued by NWS Tulsa, OK

Home | Current Version | Previous Version | Text Only | Print | Product List | Glossary On
Versions: 1 2 3 4 5 6 7 8 9 10 11 12 13
000
FTUS44 KTSA 131700
TAFTUL
TAF
KTUL 131720Z 1318/1418 24010KT P6SM FEW120
     FM132300 28007KT P6SM VCTS SCT060CB
     FM140100 33005KT P6SM SCT100
     FM141500 07005KT P6SM SKC=

USA.gov is the U.S. government's official web portal to all federal, state and local government web resources and services.